Time;durP1;ratioP1;P1;durP2;ratioP2;P2;SDS_P1;SDS_P2;PMS_P1;PMS_P2;Temp;Humidity;BMP_temperature;BMP_pressure;BME280_temperature;BME280_humidity;BME280_pressure;Samples;Min_cycle;Max_cycle;Signal;HPM_P1;HPM_P2
2023/04/16 00:01:35;;;;;;;5.50;1.65;;;;;;;6.66;100.00;102447.63;5030694;28;20099;-77
2023/04/16 00:04:01;;;;;;;6.15;1.90;;;;;;;6.65;100.00;102451.19;5030646;28;20128;-76
2023/04/16 00:06:27;;;;;;;9.90;2.55;;;;;;;6.66;100.00;102455.56;5030796;28;20025;-76
2023/04/16 00:08:52;;;;;;;9.52;2.40;;;;;;;6.66;100.00;102452.06;5030201;28;20029;-75
2023/04/16 00:11:18;;;;;;;8.23;1.90;;;;;;;6.64;100.00;102453.91;5028983;28;20079;-76
2023/04/16 00:13:43;;;;;;;16.27;2.47;;;;;;;6.64;100.00;102461.84;5031140;28;20127;-77
2023/04/16 00:16:08;;;;;;;8.98;2.10;;;;;;;6.66;100.00;102463.50;5030562;28;20041;-77
2023/04/16 00:18:34;;;;;;;12.82;1.90;;;;;;;6.66;100.00;102462.66;5030553;28;20051;-76
2023/04/16 00:21:00;;;;;;;12.38;2.05;;;;;;;6.65;100.00;102461.78;5028967;28;20033;-76
2023/04/16 00:23:25;;;;;;;10.80;2.25;;;;;;;6.65;100.00;102460.94;5012264;28;20164;-75
2023/04/16 00:25:52;;;;;;;10.55;2.60;;;;;;;6.63;100.00;102455.72;5029628;28;20029;-76
2023/04/16 00:28:18;;;;;;;11.68;2.42;;;;;;;6.62;100.00;102445.19;5030482;28;20025;-76
2023/04/16 00:30:43;;;;;;;13.25;2.15;;;;;;;6.63;100.00;102462.78;5030033;28;20387;-75
2023/04/16 00:33:08;;;;;;;7.97;2.15;;;;;;;6.63;100.00;102447.78;5030500;28;20423;-76
2023/04/16 00:35:34;;;;;;;12.88;2.28;;;;;;;6.62;100.00;102445.19;5012061;28;20033;-75
2023/04/16 00:37:59;;;;;;;12.80;2.13;;;;;;;6.61;100.00;102446.13;5029612;28;20129;-75
2023/04/16 00:40:29;;;;;;;13.63;2.20;;;;;;;6.63;100.00;102441.63;5029013;28;20033;-75
2023/04/16 00:42:54;;;;;;;13.13;2.22;;;;;;;6.64;100.00;102440.69;5028517;28;20502;-75
2023/04/16 00:45:20;;;;;;;15.13;2.22;;;;;;;6.63;100.00;102437.19;5028647;28;20037;-76
2023/04/16 00:47:45;;;;;;;10.25;2.30;;;;;;;6.65;100.00;102445.91;5029864;28;20204;-75
2023/04/16 00:50:11;;;;;;;14.38;2.13;;;;;;;6.65;100.00;102439.75;5030152;28;20033;-76
2023/04/16 00:52:37;;;;;;;13.35;2.63;;;;;;;6.67;100.00;102443.19;5030365;28;20040;-75
2023/04/16 00:55:06;;;;;;;8.27;2.35;;;;;;;6.69;100.00;102451.91;5031812;28;20163;-76
2023/04/16 00:57:31;;;;;;;16.45;2.40;;;;;;;6.69;100.00;102450.13;5030086;28;20037;-76
2023/04/16 00:59:57;;;;;;;7.85;2.20;;;;;;;6.68;100.00;102451.03;5030047;28;20416;-75
2023/04/16 01:02:22;;;;;;;10.52;2.70;;;;;;;6.67;100.00;102446.69;5029781;28;20490;-76
2023/04/16 01:04:48;;;;;;;7.60;1.90;;;;;;;6.69;100.00;102450.13;5030312;28;20041;-76
2023/04/16 01:07:13;;;;;;;6.93;1.70;;;;;;;6.71;100.00;102452.69;5030303;28;20025;-76
2023/04/16 01:09:39;;;;;;;13.23;2.55;;;;;;;6.71;100.00;102456.19;5028657;28;20562;-77
2023/04/16 01:12:04;;;;;;;13.00;2.40;;;;;;;6.71;100.00;102450.03;5028528;28;20124;-76
2023/04/16 01:14:35;;;;;;;12.50;2.13;;;;;;;6.71;100.00;102452.69;5029960;28;20029;-76
2023/04/16 01:17:01;;;;;;;9.90;1.92;;;;;;;6.71;100.00;102453.53;5029624;28;20475;-75
2023/04/16 01:19:28;;;;;;;4.80;2.03;;;;;;;6.71;100.00;102453.53;5029895;28;20089;-76
2023/04/16 01:21:53;;;;;;;10.85;2.58;;;;;;;6.69;100.00;102452.75;5028707;28;20101;-76
2023/04/16 01:24:18;;;;;;;16.25;2.30;;;;;;;6.69;100.00;102447.47;5029854;28;20063;-77
2023/04/16 01:26:44;;;;;;;14.65;2.97;;;;;;;6.69;100.00;102454.56;5029689;28;20407;-76
2023/04/16 01:29:10;;;;;;;13.68;2.90;;;;;;;6.68;100.00;102445.75;5028375;28;20461;-76
2023/04/16 01:31:35;;;;;;;12.35;2.72;;;;;;;6.69;100.00;102444.81;5030024;28;20432;-76
2023/04/16 01:34:00;;;;;;;13.35;2.03;;;;;;;6.67;100.00;102446.69;5029997;28;20076;-76
2023/04/16 01:36:26;;;;;;;8.45;2.30;;;;;;;6.67;100.00;102452.00;5027882;28;20120;-76
2023/04/16 01:38:51;;;;;;;9.73;2.10;;;;;;;6.67;100.00;102457.28;5033507;28;20050;-76
2023/04/16 01:41:17;;;;;;;4.28;2.10;;;;;;;6.65;100.00;102452.97;5033337;28;20211;-76
2023/04/16 01:43:42;;;;;;;13.63;2.85;;;;;;;6.64;100.00;102451.25;5033348;28;20412;-76
2023/04/16 01:46:19;;;;;;;12.77;2.88;;;;;;;6.61;100.00;102452.25;5033497;28;20050;-77
2023/04/16 01:48:45;;;;;;;13.15;3.15;;;;;;;6.58;100.00;102454.22;5033819;28;20112;-75
2023/04/16 01:51:10;;;;;;;18.73;2.83;;;;;;;6.57;100.00;102455.13;5033910;28;20037;-74
2023/04/16 01:53:36;;;;;;;10.25;2.30;;;;;;;6.54;100.00;102461.44;5033463;28;20030;-75
2023/04/16 01:56:01;;;;;;;7.47;2.28;;;;;;;6.55;100.00;102459.66;5033247;28;20462;-75
2023/04/16 01:58:28;;;;;;;14.05;2.95;;;;;;;6.55;100.00;102464.94;5033198;28;20112;-77
2023/04/16 02:00:54;;;;;;;11.95;2.40;;;;;;;6.53;100.00;102462.38;5033231;28;20347;-75
2023/04/16 02:03:22;;;;;;;11.45;2.63;;;;;;;6.53;100.00;102463.22;5032968;28;20132;-76
2023/04/16 02:05:48;;;;;;;11.25;2.60;;;;;;;6.53;100.00;102467.66;5032951;28;20079;-76
2023/04/16 02:08:13;;;;;;;10.35;2.60;;;;;;;6.52;100.00;102468.56;5033516;28;20387;-75
2023/04/16 02:10:39;;;;;;;15.93;2.95;;;;;;;6.51;100.00;102464.25;5033453;28;20071;-69
2023/04/16 02:13:04;;;;;;;14.38;2.70;;;;;;;6.51;100.00;102469.53;5035891;28;20029;-70
2023/04/16 02:15:30;;;;;;;8.82;2.42;;;;;;;6.51;100.00;102475.66;5035588;28;20489;-70
2023/04/16 02:17:55;;;;;;;16.48;3.53;;;;;;;6.52;100.00;102476.50;5035629;28;20036;-70
2023/04/16 02:20:21;;;;;;;14.32;2.47;;;;;;;6.50;100.00;102475.72;5035586;28;20495;-70
2023/04/16 02:22:46;;;;;;;8.57;2.60;;;;;;;6.51;100.00;102474.81;5034853;28;20360;-71
2023/04/16 02:25:13;;;;;;;8.15;2.70;;;;;;;6.50;100.00;102479.22;5035856;28;20079;-71
2023/04/16 02:27:38;;;;;;;11.43;2.75;;;;;;;6.50;100.00;102483.66;5033952;28;20172;-71
2023/04/16 02:30:04;;;;;;;11.80;2.88;;;;;;;6.49;100.00;102484.59;5035147;28;20083;-70
2023/04/16 02:32:30;;;;;;;10.52;2.78;;;;;;;6.48;100.00;102477.59;5034971;28;20103;-72
2023/04/16 02:34:56;;;;;;;14.70;2.90;;;;;;;6.46;100.00;102477.66;5034673;28;20467;-70
2023/04/16 02:37:21;;;;;;;13.15;3.10;;;;;;;6.46;100.00;102476.81;5034880;28;20051;-70
2023/04/16 02:39:52;;;;;;;17.33;2.80;;;;;;;6.45;100.00;102481.25;5033487;28;20072;-71
2023/04/16 02:42:17;;;;;;;16.10;3.60;;;;;;;6.46;100.00;102479.44;5034899;28;20128;-70
2023/04/16 02:44:42;;;;;;;15.35;2.90;;;;;;;6.46;100.00;102479.44;5034901;28;20150;-70
2023/04/16 02:47:08;;;;;;;13.35;2.67;;;;;;;6.44;100.00;102482.16;5034827;28;20109;-70
2023/04/16 02:49:34;;;;;;;16.77;3.20;;;;;;;6.45;100.00;102480.38;5034828;28;20061;-69
2023/04/16 02:52:00;;;;;;;13.20;2.83;;;;;;;6.46;100.00;102485.59;5034961;28;20033;-69
2023/04/16 02:54:25;;;;;;;17.00;4.15;;;;;;;6.46;100.00;102484.72;5033433;28;20103;-69
2023/04/16 02:56:50;;;;;;;10.82;3.28;;;;;;;6.44;100.00;102479.53;5034510;28;20065;-70
2023/04/16 02:59:15;;;;;;;11.27;2.92;;;;;;;6.42;100.00;102477.88;5034649;28;20033;-69
2023/04/16 03:01:41;;;;;;;12.68;2.70;;;;;;;6.42;100.00;102483.16;5034391;28;20040;-69
2023/04/16 03:04:06;;;;;;;9.65;3.05;;;;;;;6.41;100.00;102482.31;5034420;28;20033;-69
2023/04/16 03:06:31;;;;;;;14.55;3.10;;;;;;;6.40;100.00;102477.09;5034543;28;20045;-70
2023/04/16 03:08:57;;;;;;;10.68;3.30;;;;;;;6.40;100.00;102485.03;5034054;28;20386;-70
2023/04/16 03:11:22;;;;;;;13.55;2.92;;;;;;;6.38;100.00;102477.16;5033038;28;20026;-69
2023/04/16 03:13:48;;;;;;;11.35;2.85;;;;;;;6.34;100.00;102486.16;5034161;28;20086;-69
2023/04/16 03:16:13;;;;;;;11.27;3.30;;;;;;;6.33;100.00;102479.19;5034088;28;20386;-69
2023/04/16 03:18:38;;;;;;;12.95;3.30;;;;;;;6.31;100.00;102484.50;5034020;28;20037;-71
2023/04/16 03:21:04;;;;;;;17.20;3.13;;;;;;;6.26;100.00;102485.69;5033928;28;20109;-69
2023/04/16 03:23:29;;;;;;;10.98;3.75;;;;;;;6.20;100.00;102489.44;5034263;28;20502;-70
2023/04/16 03:25:55;;;;;;;21.08;3.85;;;;;;;6.13;100.00;102485.38;5033637;28;20522;-70
2023/04/16 03:28:20;;;;;;;11.75;3.13;;;;;;;6.08;100.00;102487.38;5034671;28;20486;-71
2023/04/16 03:30:54;;;;;;;15.75;3.67;;;;;;;6.03;100.00;102484.94;5033895;28;20025;-71
2023/04/16 03:33:20;;;;;;;27.92;3.95;;;;;;;6.02;100.00;102485.88;5034126;28;20034;-70
2023/04/16 03:35:45;;;;;;;17.95;3.35;;;;;;;5.97;100.00;102491.34;5033868;28;20029;-70
2023/04/16 03:38:11;;;;;;;19.15;4.25;;;;;;;5.98;100.00;102500.13;5033263;28;20053;-70
2023/04/16 03:40:37;;;;;;;12.45;3.28;;;;;;;5.96;100.00;102499.31;5033784;28;20057;-71
2023/04/16 03:43:03;;;;;;;13.75;3.10;;;;;;;5.95;100.00;102489.66;5033715;28;20040;-70
2023/04/16 03:45:28;;;;;;;15.20;3.20;;;;;;;5.92;100.00;102493.28;5033415;28;20331;-71
2023/04/16 03:47:53;;;;;;;15.40;3.03;;;;;;;5.92;100.00;102493.28;5032319;28;20076;-70
2023/04/16 03:50:19;;;;;;;18.60;3.13;;;;;;;5.89;100.00;102490.78;5033007;28;20041;-70
2023/04/16 03:52:45;;;;;;;17.50;4.00;;;;;;;5.90;100.00;102487.22;5033537;28;20061;-69
2023/04/16 03:55:11;;;;;;;16.27;3.72;;;;;;;5.91;100.00;102493.38;5034095;28;20040;-71
2023/04/16 03:57:36;;;;;;;15.25;3.40;;;;;;;5.87;100.00;102491.78;5032408;28;20037;-70
2023/04/16 04:00:02;;;;;;;19.05;4.25;;;;;;;5.90;100.00;102499.59;5031266;28;20452;-71
2023/04/16 04:02:27;;;;;;;16.02;3.30;;;;;;;5.88;100.00;102491.75;5033445;28;20037;-69
2023/04/16 04:04:53;;;;;;;16.42;3.78;;;;;;;5.90;100.00;102497.81;5031901;28;20128;-69
2023/04/16 04:07:18;;;;;;;14.30;3.63;;;;;;;5.91;100.00;102499.53;5031857;28;20056;-69
2023/04/16 04:09:44;;;;;;;16.95;4.05;;;;;;;5.92;100.00;102495.09;5033474;28;20108;-69
2023/04/16 04:12:09;;;;;;;22.83;3.22;;;;;;;5.93;100.00;102488.88;5033078;28;20348;-70
2023/04/16 04:14:38;;;;;;;14.40;3.42;;;;;;;5.91;100.00;102496.88;5033646;28;20033;-69
2023/04/16 04:17:04;;;;;;;15.43;3.15;;;;;;;5.90;100.00;102492.53;5032812;28;20037;-69
2023/04/16 04:19:29;;;;;;;11.77;3.30;;;;;;;5.91;100.00;102482.78;5033607;28;20044;-71
2023/04/16 04:21:55;;;;;;;11.65;3.08;;;;;;;5.89;100.00;102489.94;5033094;28;20501;-69
2023/04/16 04:24:20;;;;;;;11.75;3.35;;;;;;;5.88;100.00;102489.09;5033047;28;20033;-69
2023/04/16 04:26:46;;;;;;;18.63;3.35;;;;;;;5.86;100.00;102487.44;5033130;28;20044;-69
2023/04/16 04:29:12;;;;;;;16.70;3.65;;;;;;;5.87;100.00;102490.00;5032950;28;20490;-69
2023/04/16 04:31:37;;;;;;;16.02;2.97;;;;;;;5.84;100.00;102495.44;5033511;28;20041;-69
2023/04/16 04:34:03;;;;;;;15.73;3.05;;;;;;;5.83;100.00;102497.19;5033164;28;20136;-69
2023/04/16 04:36:28;;;;;;;10.70;2.90;;;;;;;5.86;100.00;102500.66;5033554;28;20044;-69
2023/04/16 04:38:53;;;;;;;8.02;3.60;;;;;;;5.83;100.00;102499.84;5033405;28;20356;-69
2023/04/16 04:41:20;;;;;;;16.20;3.10;;;;;;;5.84;100.00;102503.34;5032890;28;20033;-69
2023/04/16 04:43:45;;;;;;;20.05;4.22;;;;;;;5.84;100.00;102500.72;5033048;28;20494;-69
2023/04/16 04:46:11;;;;;;;12.82;2.83;;;;;;;5.85;100.00;102507.69;5031550;28;20034;-69
2023/04/16 04:48:36;;;;;;;9.07;2.67;;;;;;;5.85;100.00;102514.78;5032822;28;20068;-69
2023/04/16 04:51:03;;;;;;;11.50;2.97;;;;;;;5.86;100.00;102506.78;5032735;28;20048;-69
2023/04/16 04:53:28;;;;;;;12.60;3.38;;;;;;;5.87;100.00;102516.44;5031565;28;20055;-69
2023/04/16 04:55:54;;;;;;;13.07;3.20;;;;;;;5.87;100.00;102516.44;5032793;28;20468;-68
2023/04/16 04:58:19;;;;;;;15.25;3.55;;;;;;;5.87;100.00;102511.16;5031337;28;20033;-68
2023/04/16 05:00:45;;;;;;;12.30;3.10;;;;;;;5.88;100.00;102518.16;5032679;28;20216;-68
2023/04/16 05:03:11;;;;;;;19.48;3.28;;;;;;;5.90;100.00;102513.66;5032407;28;20041;-69
2023/04/16 05:05:40;;;;;;;11.82;3.03;;;;;;;5.93;100.00;102518.81;5032651;28;20041;-68
2023/04/16 05:08:05;;;;;;;14.65;3.15;;;;;;;5.95;100.00;102524.88;5032386;28;20037;-70
2023/04/16 05:10:31;;;;;;;18.63;2.90;;;;;;;5.96;100.00;102525.75;5032557;28;20033;-68
2023/04/16 05:12:56;;;;;;;17.45;3.47;;;;;;;5.99;100.00;102533.56;5036639;28;20121;-69
2023/04/16 05:15:22;;;;;;;15.80;3.13;;;;;;;6.00;100.00;102527.34;5036342;28;20455;-69
2023/04/16 05:17:47;;;;;;;15.02;2.65;;;;;;;6.02;100.00;102536.06;5035016;28;20530;-69
2023/04/16 05:20:12;;;;;;;11.27;3.03;;;;;;;6.04;100.00;102528.06;5036318;28;20029;-69
2023/04/16 05:22:38;;;;;;;17.60;2.88;;;;;;;6.04;100.00;102528.91;5036095;28;20088;-69
2023/04/16 05:25:03;;;;;;;7.38;2.35;;;;;;;6.05;100.00;102535.94;5036377;28;20447;-69
2023/04/16 05:27:29;;;;;;;12.35;2.92;;;;;;;6.09;100.00;102541.94;5037169;28;20039;-69
2023/04/16 05:29:54;;;;;;;21.40;3.53;;;;;;;6.11;100.00;102538.28;5036369;28;20116;-69
2023/04/16 05:32:20;;;;;;;10.05;2.95;;;;;;;6.13;100.00;102541.72;5036199;28;20091;-69
2023/04/16 05:34:45;;;;;;;11.43;3.17;;;;;;;6.14;100.00;102538.16;5036393;28;20471;-69
2023/04/16 05:37:10;;;;;;;12.35;2.78;;;;;;;6.16;100.00;102538.94;5034335;28;20167;-69
2023/04/16 05:39:36;;;;;;;13.75;3.00;;;;;;;6.18;100.00;102545.03;5036263;28;20037;-69
2023/04/16 05:42:01;;;;;;;13.85;2.80;;;;;;;6.22;100.00;102544.88;5036120;28;20048;-68
2023/04/16 05:44:26;;;;;;;11.05;3.03;;;;;;;6.24;100.00;102551.84;5036046;28;20105;-69
2023/04/16 05:46:52;;;;;;;11.93;3.08;;;;;;;6.26;100.00;102541.19;5035683;28;20043;-68
2023/04/16 05:49:21;;;;;;;10.23;3.25;;;;;;;6.29;100.00;102544.53;5035832;28;20147;-69
2023/04/16 05:51:46;;;;;;;15.55;3.60;;;;;;;6.30;100.00;102548.91;5035989;28;20033;-69
2023/04/16 05:54:12;;;;;;;13.05;3.50;;;;;;;6.33;100.00;102551.41;5035895;28;20044;-67
2023/04/16 05:56:37;;;;;;;9.30;2.90;;;;;;;6.34;100.00;102545.22;5035589;28;20039;-69
2023/04/16 05:59:03;;;;;;;8.95;3.03;;;;;;;6.38;100.00;102547.72;5035483;28;20029;-68
2023/04/16 06:01:28;;;;;;;11.30;3.03;;;;;;;6.41;100.00;102550.22;5035769;28;20117;-69
2023/04/16 06:03:53;;;;;;;8.20;3.20;;;;;;;6.43;100.00;102549.19;5035385;28;20037;-68
2023/04/16 06:06:19;;;;;;;11.75;3.13;;;;;;;6.43;100.00;102549.19;5035530;28;20112;-69
2023/04/16 06:08:44;;;;;;;11.95;3.38;;;;;;;6.45;100.00;102551.75;5035624;28;20033;-69
2023/04/16 06:11:10;;;;;;;14.70;4.10;;;;;;;6.46;100.00;102556.13;5035685;28;20510;-69
2023/04/16 06:13:36;;;;;;;13.10;3.05;;;;;;;6.48;100.00;102562.22;5035218;28;20435;-69
2023/04/16 06:16:01;;;;;;;13.25;3.20;;;;;;;6.47;100.00;102561.34;5036278;28;20025;-69
2023/04/16 06:18:26;;;;;;;10.10;3.22;;;;;;;6.49;100.00;102569.22;5035291;28;20121;-68
2023/04/16 06:20:52;;;;;;;8.63;3.05;;;;;;;6.49;100.00;102559.50;5035346;28;20106;-69
2023/04/16 06:23:17;;;;;;;12.48;3.95;;;;;;;6.49;100.00;102569.22;5034342;28;20471;-69
2023/04/16 06:25:43;;;;;;;12.15;3.65;;;;;;;6.46;100.00;102566.72;5035335;28;20129;-68
2023/04/16 06:28:08;;;;;;;12.90;3.35;;;;;;;6.46;100.00;102566.72;5035176;28;20061;-69
2023/04/16 06:30:34;;;;;;;14.07;4.18;;;;;;;6.45;100.00;102568.50;5035325;28;20100;-69
2023/04/16 06:32:59;;;;;;;8.38;3.55;;;;;;;6.47;100.00;102573.72;5034897;28;20390;-68
2023/04/16 06:35:25;;;;;;;15.68;3.75;;;;;;;6.47;100.00;102571.94;5034957;28;20033;-68
2023/04/16 06:37:50;;;;;;;9.23;3.60;;;;;;;6.46;100.00;102572.84;5034537;28;20049;-68
2023/04/16 06:40:16;;;;;;;12.07;3.85;;;;;;;6.46;100.00;102585.22;5034107;28;20116;-70
2023/04/16 06:42:41;;;;;;;11.98;4.03;;;;;;;6.41;100.00;102576.66;5035329;28;20425;-69
2023/04/16 06:45:07;;;;;;;12.55;4.72;;;;;;;6.40;100.00;102574.94;5035000;28;20521;-68
2023/04/16 06:47:33;;;;;;;8.55;4.10;;;;;;;6.41;100.00;102577.50;5034539;28;20063;-69
2023/04/16 06:49:58;;;;;;;12.45;4.18;;;;;;;6.41;100.00;102585.44;5035083;28;20037;-69
2023/04/16 06:52:24;;;;;;;12.90;4.65;;;;;;;6.39;100.00;102583.78;5034816;28;20033;-69
2023/04/16 06:54:49;;;;;;;10.52;4.57;;;;;;;6.40;100.00;102591.63;5034804;28;20391;-69
2023/04/16 06:57:15;;;;;;;11.75;4.10;;;;;;;6.40;100.00;102590.78;5034433;28;20052;-69
2023/04/16 06:59:40;;;;;;;16.95;4.78;;;;;;;6.40;100.00;102589.00;5034897;28;20026;-70
2023/04/16 07:02:08;;;;;;;13.13;4.60;;;;;;;6.40;100.00;102593.44;5034752;28;20033;-69
2023/04/16 07:04:34;;;;;;;13.30;4.60;;;;;;;6.41;100.00;102590.72;5034642;28;20033;-69
2023/04/16 07:07:00;;;;;;;6.80;3.78;;;;;;;6.41;100.00;102587.22;5034952;28;20427;-69
2023/04/16 07:09:26;;;;;;;9.68;4.28;;;;;;;6.43;100.00;102594.13;5034423;28;20422;-69
2023/04/16 07:11:51;;;;;;;12.93;4.85;;;;;;;6.46;100.00;102595.78;5034403;28;20418;-69
2023/04/16 07:14:16;;;;;;;8.60;4.40;;;;;;;6.46;100.00;102596.66;5034867;28;20053;-69
2023/04/16 07:16:42;;;;;;;17.65;4.78;;;;;;;6.49;100.00;102604.47;5034569;28;20411;-69
2023/04/16 07:19:07;;;;;;;14.50;4.53;;;;;;;6.53;100.00;102602.53;5034640;28;20029;-68
2023/04/16 07:21:33;;;;;;;12.27;3.80;;;;;;;6.57;100.00;102605.88;5032881;28;20033;-69
2023/04/16 07:23:58;;;;;;;8.40;3.92;;;;;;;6.58;100.00;102610.25;5034830;28;20036;-69
2023/04/16 07:26:23;;;;;;;10.32;3.65;;;;;;;6.57;100.00;102605.88;5034133;28;20443;-69
2023/04/16 07:28:49;;;;;;;13.52;3.38;;;;;;;6.59;100.00;102607.53;5033852;28;20471;-69
2023/04/16 07:31:14;;;;;;;9.45;3.38;;;;;;;6.58;100.00;102603.16;5016351;28;20068;-69
2023/04/16 07:33:40;;;;;;;10.45;3.72;;;;;;;6.62;100.00;102604.75;5034207;28;20124;-69
2023/04/16 07:36:05;;;;;;;11.52;3.70;;;;;;;6.63;100.00;102606.47;5034324;28;20029;-69
2023/04/16 07:38:30;;;;;;;13.63;4.20;;;;;;;6.63;100.00;102608.28;5033864;28;20438;-69
2023/04/16 07:40:56;;;;;;;14.30;4.07;;;;;;;6.66;100.00;102608.13;5033318;28;20382;-71
2023/04/16 07:43:21;;;;;;;7.70;3.58;;;;;;;6.70;100.00;102613.22;5034225;28;20455;-68
2023/04/16 07:45:47;;;;;;;13.68;3.92;;;;;;;6.76;100.00;102611.19;5033920;28;20029;-68
2023/04/16 07:48:12;;;;;;;11.98;4.50;;;;;;;6.81;100.00;102619.78;5033819;28;20087;-68
2023/04/16 07:50:38;;;;;;;10.60;3.72;;;;;;;6.85;100.00;102629.28;5032305;28;20080;-69
2023/04/16 07:53:04;;;;;;;6.88;3.45;;;;;;;6.87;100.00;102627.44;5033955;28;20078;-68
2023/04/16 07:55:30;;;;;;;14.07;3.85;;;;;;;6.87;100.00;102623.00;5033453;28;20063;-70
2023/04/16 07:57:55;;;;;;;10.45;3.88;;;;;;;6.92;100.00;102632.53;5033396;28;20399;-74
2023/04/16 08:00:20;;;;;;;10.98;4.07;;;;;;;6.94;100.00;102631.53;5033211;28;20112;-69
2023/04/16 08:02:46;;;;;;;11.30;3.63;;;;;;;6.97;100.00;102628.75;5032996;28;20029;-70
2023/04/16 08:05:12;;;;;;;13.00;4.22;;;;;;;6.98;100.00;102634.88;5033186;28;20042;-71
2023/04/16 08:07:37;;;;;;;11.27;3.72;;;;;;;7.02;100.00;102633.81;5032854;28;20029;-70
2023/04/16 08:10:02;;;;;;;14.48;4.82;;;;;;;7.05;100.00;102634.50;5031571;28;20037;-70
2023/04/16 08:12:28;;;;;;;15.65;4.00;;;;;;;7.10;100.00;102639.59;5031545;28;20043;-70
2023/04/16 08:14:54;;;;;;;16.13;4.72;;;;;;;7.15;100.00;102644.66;5032511;28;20029;-70
2023/04/16 08:17:19;;;;;;;15.15;3.92;;;;;;;7.17;100.00;102638.38;5032518;28;20053;-69
2023/04/16 08:19:45;;;;;;;12.75;3.97;;;;;;;7.16;100.00;102651.69;5032748;28;20525;-69
2023/04/16 08:22:11;;;;;;;14.23;3.78;;;;;;;7.17;100.00;102648.13;5032076;28;20026;-70
2023/04/16 08:24:37;;;;;;;9.45;3.53;;;;;;;7.15;100.00;102647.31;5032416;28;20033;-71
2023/04/16 08:27:03;;;;;;;19.90;4.20;;;;;;;7.15;100.00;102649.97;5032624;28;20489;-69
2023/04/16 08:29:28;;;;;;;11.30;4.75;;;;;;;7.18;100.00;102655.09;5032665;28;20037;-69
2023/04/16 08:31:54;;;;;;;10.65;4.38;;;;;;;7.21;100.00;102647.00;5032862;28;20113;-69
2023/04/16 08:34:19;;;;;;;12.38;3.90;;;;;;;7.23;100.00;102653.13;5032444;28;20091;-69
2023/04/16 08:36:45;;;;;;;9.65;3.80;;;;;;;7.26;100.00;102652.13;5032632;28;20072;-69
2023/04/16 08:39:10;;;;;;;10.38;3.75;;;;;;;7.30;100.00;102653.66;5032647;28;20056;-70
2023/04/16 08:41:37;;;;;;;14.45;3.63;;;;;;;7.32;100.00;102647.38;5032603;28;20033;-69
2023/04/16 08:44:07;;;;;;;12.20;3.80;;;;;;;7.31;100.00;102639.50;5033214;28;20044;-69
2023/04/16 08:46:36;;;;;;;12.73;4.05;;;;;;;7.34;100.00;102652.59;5031854;28;20025;-69
2023/04/16 08:49:05;;;;;;;9.73;3.47;;;;;;;7.34;100.00;102655.25;5032424;28;20100;-70
2023/04/16 08:51:34;;;;;;;6.47;3.25;;;;;;;7.34;100.00;102649.94;5031982;28;20021;-70
2023/04/16 08:54:03;;;;;;;11.55;3.30;;;;;;;7.33;100.00;102664.09;5032182;28;20068;-69
2023/04/16 08:56:30;;;;;;;18.33;4.38;;;;;;;7.36;100.00;102659.53;5031884;28;20033;-68
2023/04/16 08:58:57;;;;;;;15.20;3.60;;;;;;;7.43;100.00;102656.59;5031195;28;20044;-70
2023/04/16 09:01:25;;;;;;;11.85;3.40;;;;;;;7.45;100.00;102655.59;5031018;28;20079;-71
2023/04/16 09:03:51;;;;;;;9.25;3.40;;;;;;;7.50;100.00;102661.50;5033062;28;20025;-71
2023/04/16 09:06:17;;;;;;;9.35;3.50;;;;;;;7.50;100.00;102666.81;5032410;28;20079;-70
2023/04/16 09:08:45;;;;;;;13.32;3.22;;;;;;;7.50;100.00;102664.16;5032378;28;20367;-69
2023/04/16 09:11:12;;;;;;;14.35;3.47;;;;;;;7.52;100.00;102664.09;5032456;28;20048;-70
2023/04/16 09:13:38;;;;;;;10.55;3.20;;;;;;;7.57;100.00;102665.59;5032425;28;20029;-69
2023/04/16 09:16:05;;;;;;;13.05;3.55;;;;;;;7.59;100.00;102663.72;5032470;28;20361;-70
2023/04/16 09:18:31;;;;;;;15.23;3.30;;;;;;;7.58;100.00;102669.09;5031088;28;20045;-70
2023/04/16 09:20:56;;;;;;;12.63;3.67;;;;;;;7.64;100.00;102663.47;5030980;28;20033;-68
2023/04/16 09:23:22;;;;;;;8.75;3.50;;;;;;;7.65;100.00;102667.84;5032817;28;20043;-69
2023/04/16 09:25:47;;;;;;;12.55;3.50;;;;;;;7.66;100.00;102677.53;5031956;28;20116;-70
2023/04/16 09:28:43;;;;;;;11.50;3.63;;;;;;;7.70;100.00;102676.44;5030558;28;20422;-69
2023/04/16 09:31:10;;;;;;;11.63;3.55;;;;;;;7.69;100.00;102674.72;5031347;28;20041;-70
2023/04/16 09:33:35;;;;;;;9.15;3.22;;;;;;;7.70;100.00;102686.19;5031762;28;20042;-70
2023/04/16 09:36:01;;;;;;;11.30;2.97;;;;;;;7.67;100.00;102686.31;5032190;28;20032;-69
2023/04/16 09:38:45;;;;;;;14.60;3.78;;;;;;;7.67;100.00;102692.47;5031773;28;20096;-69
2023/04/16 09:41:10;;;;;;;15.48;3.70;;;;;;;7.68;100.00;102688.06;5032852;28;20099;-70
2023/04/16 09:43:35;;;;;;;13.43;3.63;;;;;;;7.70;100.00;102691.47;5032465;28;20460;-67
2023/04/16 09:46:03;;;;;;;12.65;3.28;;;;;;;7.69;100.00;102698.56;5032096;28;20436;-69
2023/04/16 09:48:30;;;;;;;9.10;3.25;;;;;;;7.68;100.00;102704.78;5032035;28;20463;-72
2023/04/16 09:50:56;;;;;;;11.50;3.95;;;;;;;7.65;100.00;102701.44;5030820;28;20428;-70
2023/04/16 09:53:26;;;;;;;8.35;3.97;;;;;;;7.67;100.00;102703.06;5032123;28;20470;-70
2023/04/16 09:55:55;;;;;;;9.57;3.88;;;;;;;7.70;100.00;102692.34;5031914;28;20026;-70
2023/04/16 09:58:23;;;;;;;12.63;3.80;;;;;;;7.68;100.00;102702.16;5031836;28;20399;-70
2023/04/16 10:00:49;;;;;;;18.25;3.90;;;;;;;7.70;100.00;102707.38;5036060;28;20100;-70
2023/04/16 10:03:14;;;;;;;17.05;4.05;;;;;;;7.70;100.00;102715.31;5034202;28;20033;-69
2023/04/16 10:05:40;;;;;;;13.55;4.45;;;;;;;7.70;100.00;102710.91;5035940;28;20383;-70
2023/04/16 10:08:12;;;;;;;19.75;4.20;;;;;;;7.71;100.00;102704.66;5035278;28;20102;-70
2023/04/16 10:10:37;;;;;;;14.52;3.97;;;;;;;7.77;100.00;102711.44;5035480;28;20026;-72
2023/04/16 10:13:03;;;;;;;16.95;4.00;;;;;;;7.79;100.00;102714.88;5035012;28;20043;-70
2023/04/16 10:15:29;;;;;;;11.93;3.70;;;;;;;7.76;100.00;102715.91;5035216;28;20044;-71
2023/04/16 10:17:56;;;;;;;19.50;3.90;;;;;;;7.75;100.00;102716.81;5035123;28;20112;-71
2023/04/16 10:20:22;;;;;;;10.68;3.78;;;;;;;7.76;100.00;102722.97;5033908;28;20051;-70
2023/04/16 10:22:48;;;;;;;10.68;3.92;;;;;;;7.74;100.00;102712.44;5033942;28;20048;-73
2023/04/16 10:25:14;;;;;;;15.85;4.38;;;;;;;7.79;100.00;102724.63;5035274;28;20033;-71
2023/04/16 10:27:40;;;;;;;11.75;3.47;;;;;;;7.82;100.00;102720.00;5034908;28;20038;-74
2023/04/16 10:30:08;;;;;;;15.57;4.38;;;;;;;7.83;100.00;102719.09;5035259;28;20025;-74
2023/04/16 10:32:35;;;;;;;10.82;4.00;;;;;;;7.94;100.00;102721.19;5033779;28;20033;-74
2023/04/16 10:35:00;;;;;;;13.32;4.10;;;;;;;7.98;100.00;102720.13;5034269;28;20422;-73
2023/04/16 10:37:33;;;;;;;10.10;3.90;;;;;;;7.99;100.00;102726.31;5033928;28;20056;-71
2023/04/16 10:39:58;;;;;;;13.38;4.30;;;;;;;7.94;100.00;102724.72;5035130;28;20029;-73
2023/04/16 10:42:24;;;;;;;13.25;4.63;;;;;;;8.05;100.00;102729.50;5034788;28;20035;-73
2023/04/16 10:44:50;;;;;;;14.73;4.50;;;;;;;8.09;100.00;102731.06;5033941;28;20115;-73
2023/04/16 10:47:16;;;;;;;8.98;3.47;;;;;;;8.18;100.00;102736.81;5035035;28;20044;-71
2023/04/16 10:49:42;;;;;;;8.68;3.83;;;;;;;8.16;100.00;102736.91;5034381;28;20029;-73
2023/04/16 10:52:13;;;;;;;9.43;3.90;;;;;;;8.24;100.00;102728.56;5034876;28;20125;-70
2023/04/16 10:54:40;;;;;;;13.98;3.80;;;;;;;8.32;100.00;102729.03;5033267;28;20034;-70
2023/04/16 10:57:13;;;;;;;8.75;3.90;;;;;;;8.36;100.00;102733.25;5033704;28;20030;-72
2023/04/16 10:59:41;;;;;;;5.55;3.28;;;;;;;8.41;100.00;102725.91;5034660;28;20026;-71
2023/04/16 11:02:11;;;;;;;9.05;3.60;;;;;;;8.44;100.00;102728.44;5034668;28;20039;-70
2023/04/16 11:04:38;;;;;;;11.55;4.20;;;;;;;8.49;100.00;102724.69;5035178;28;20482;-71
2023/04/16 11:07:12;;;;;;;10.93;4.30;;;;;;;8.47;100.00;102727.44;5033676;28;20030;-75
2023/04/16 11:10:04;;;;;;;9.20;3.83;;;;;;;8.38;100.00;102722.56;5033856;28;20032;-73
2023/04/16 11:12:41;;;;;;;12.93;4.10;;;;;;;8.34;100.00;102728.97;5034223;28;20124;-71
2023/04/16 11:15:06;;;;;;;13.07;4.05;;;;;;;8.32;100.00;102729.03;5032921;28;20120;-72